Time;durP1;ratioP1;P1;durP2;ratioP2;P2;SDS_P1;SDS_P2;PMS_P1;PMS_P2;Temp;Humidity;BMP_temperature;BMP_pressure;BME280_temperature;BME280_humidity;BME280_pressure;Samples;Min_cycle;Max_cycle;Signal;HPM_P1;HPM_P2
2023/07/23 18:38:19;;;;;;;4.53;3.47;;;;;;;;;;5091461;28;20716;-58
2023/07/23 18:40:45;;;;;;;4.88;3.38;;;;;;;;;;5090604;28;20489;-59
2023/07/23 18:43:11;;;;;;;5.03;3.47;;;;;;;;;;5090862;28;20037;-59
2023/07/23 18:45:37;;;;;;;5.40;3.53;;;;;;;;;;5090425;28;20122;-59
2023/07/23 18:48:03;;;;;;;8.63;4.93;;;;;;;;;;5091035;28;20035;-59
2023/07/23 18:50:29;;;;;;;5.70;3.72;;;;;;;;;;5090352;28;20021;-59
2023/07/23 18:52:55;;;;;;;7.13;3.80;;;;;;;;;;5090866;28;20032;-59
2023/07/23 18:55:20;;;;;;;7.55;3.92;;;;;;;;;;5091000;28;20111;-60
2023/07/23 18:57:46;;;;;;;6.03;4.05;;;;;;;;;;5090351;28;20193;-59
2023/07/23 19:00:13;;;;;;;5.10;3.88;;;;;;;;;;5091002;28;20023;-60
2023/07/23 19:02:38;;;;;;;6.05;4.13;;;;;;;;;;5090436;28;20027;-60
2023/07/23 19:05:05;;;;;;;5.57;4.05;;;;;;;;;;5090724;28;20020;-61
2023/07/23 19:07:30;;;;;;;5.55;3.47;;;;;;;;;;5090355;28;20032;-61
2023/07/23 19:09:56;;;;;;;5.82;4.15;;;;;;;;;;5090480;28;20361;-61
2023/07/23 19:12:22;;;;;;;4.88;3.85;;;;;;;;;;5090419;28;20356;-60
2023/07/23 19:14:48;;;;;;;5.57;3.83;;;;;;;;;;5090667;28;20017;-61
2023/07/23 19:17:15;;;;;;;6.20;4.20;;;;;;;;;;5090184;28;20538;-60
2023/07/23 19:19:41;;;;;;;4.63;3.70;;;;;;;;;;5090309;28;20035;-60
2023/07/23 19:22:07;;;;;;;5.72;3.88;;;;;;;;;;5090649;28;20016;-60
2023/07/23 19:24:33;;;;;;;7.43;4.95;;;;;;;;;;5090823;28;20028;-61
2023/07/23 19:26:59;;;;;;;4.60;3.40;;;;;;;;;;5090187;28;20036;-61
2023/07/23 19:29:25;;;;;;;6.68;3.83;;;;;;;;;;5090806;28;20441;-61
2023/07/23 19:31:51;;;;;;;4.88;3.60;;;;;;;;;;5090716;28;20061;-61
2023/07/23 19:34:18;;;;;;;4.40;3.45;;;;;;;;;;5090477;28;20020;-62
2023/07/23 19:36:44;;;;;;;5.28;3.78;;;;;;;;;;5089460;28;20517;-60
2023/07/23 19:39:10;;;;;;;5.88;4.32;;;;;;;;;;5077329;28;20032;-60
2023/07/23 19:41:38;;;;;;;7.60;4.30;;;;;;;;;;5076038;28;20051;-60
2023/07/23 19:44:05;;;;;;;7.80;4.15;;;;;;;;;;5076046;28;20020;-62
2023/07/23 19:46:31;;;;;;;6.40;4.13;;;;;;;;;;5077182;28;20324;-61
2023/07/23 19:48:57;;;;;;;6.90;4.18;;;;;;;;;;5076270;28;20035;-60
2023/07/23 19:51:23;;;;;;;6.30;5.13;;;;;;;;;;5076084;28;20019;-60
2023/07/23 19:53:49;;;;;;;6.95;4.65;;;;;;;;;;5075856;28;20024;-60
2023/07/23 19:56:15;;;;;;;7.07;4.72;;;;;;;;;;5076601;28;20029;-60
2023/07/23 19:58:41;;;;;;;5.75;4.55;;;;;;;;;;5075928;28;20032;-61
2023/07/23 20:01:07;;;;;;;7.00;4.88;;;;;;;;;;5075833;28;20032;-61
2023/07/23 20:03:33;;;;;;;7.70;5.25;;;;;;;;;;5075686;28;20055;-61
2023/07/23 20:05:59;;;;;;;7.55;4.82;;;;;;;;;;5075737;28;20039;-60
2023/07/23 20:08:25;;;;;;;5.93;4.32;;;;;;;;;;5075973;28;20107;-62
2023/07/23 20:10:51;;;;;;;4.95;3.83;;;;;;;;;;5075912;28;20051;-61
2023/07/23 20:13:17;;;;;;;7.57;4.43;;;;;;;;;;5075616;28;20361;-60
2023/07/23 20:15:44;;;;;;;7.00;4.75;;;;;;;;;;5075603;28;20060;-59
2023/07/23 20:18:10;;;;;;;5.60;4.00;;;;;;;;;;5075524;28;20032;-61
2023/07/23 20:20:36;;;;;;;7.25;4.28;;;;;;;;;;5075859;28;20031;-60
2023/07/23 20:23:02;;;;;;;5.90;3.85;;;;;;;;;;5075961;28;20013;-61
2023/07/23 20:25:28;;;;;;;4.82;4.03;;;;;;;;;;5075157;28;20063;-61
2023/07/23 20:27:54;;;;;;;6.25;5.10;;;;;;;;;;5075242;28;20043;-60
2023/07/23 20:30:20;;;;;;;7.30;4.55;;;;;;;;;;5076451;28;20082;-60
2023/07/23 20:32:46;;;;;;;5.72;3.92;;;;;;;;;;5075229;28;20030;-61
2023/07/23 20:35:13;;;;;;;5.30;3.25;;;;;;;;;;5075356;28;20047;-60
2023/07/23 20:37:39;;;;;;;6.53;4.93;;;;;;;;;;5075221;28;20156;-60
2023/07/23 20:40:05;;;;;;;6.13;3.92;;;;;;;;;;5075348;28;20024;-60
2023/07/23 20:42:31;;;;;;;5.70;4.10;;;;;;;;;;5075092;28;20017;-60
2023/07/23 20:44:57;;;;;;;5.72;4.13;;;;;;;;;;5075107;28;20387;-60
2023/07/23 20:47:23;;;;;;;5.45;4.20;;;;;;;;;;5075156;28;20032;-60
2023/07/23 20:49:49;;;;;;;6.28;4.47;;;;;;;;;;5074633;28;20024;-60
2023/07/23 20:52:15;;;;;;;5.82;3.80;;;;;;;;;;5075769;28;20016;-60
2023/07/23 20:54:41;;;;;;;6.70;4.82;;;;;;;;;;5074677;28;20477;-60
2023/07/23 20:57:07;;;;;;;6.22;4.20;;;;;;;;;;5074496;28;20017;-60
2023/07/23 20:59:33;;;;;;;5.53;3.75;;;;;;;;;;5074810;28;20085;-60
2023/07/23 21:01:59;;;;;;;6.30;4.47;;;;;;;;;;5074908;28;20029;-60
2023/07/23 21:04:25;;;;;;;7.93;5.30;;;;;;;;;;5074865;28;20020;-60
2023/07/23 21:06:51;;;;;;;5.35;3.90;;;;;;;;;;5074608;28;20098;-60
2023/07/23 21:09:17;;;;;;;7.30;4.38;;;;;;;;;;5074580;28;20024;-60
2023/07/23 21:11:43;;;;;;;5.90;4.20;;;;;;;;;;5075039;28;20028;-60
2023/07/23 21:14:09;;;;;;;6.32;4.25;;;;;;;;;;5074420;28;20024;-60
2023/07/23 21:16:35;;;;;;;6.70;4.15;;;;;;;;;;5074808;28;20028;-60
2023/07/23 21:19:01;;;;;;;6.40;4.18;;;;;;;;;;5075203;28;20025;-60
2023/07/23 21:21:27;;;;;;;6.25;4.22;;;;;;;;;;5074370;28;20025;-60
2023/07/23 21:23:53;;;;;;;6.03;4.57;;;;;;;;;;5073882;28;20024;-60
2023/07/23 21:26:19;;;;;;;6.35;4.22;;;;;;;;;;5074305;28;20031;-60
2023/07/23 21:28:45;;;;;;;6.22;4.55;;;;;;;;;;5074670;28;20028;-60
2023/07/23 21:31:11;;;;;;;6.25;4.45;;;;;;;;;;5074153;28;20342;-60
2023/07/23 21:33:37;;;;;;;7.20;4.45;;;;;;;;;;5074069;28;20115;-60
2023/07/23 21:36:03;;;;;;;6.00;4.47;;;;;;;;;;5073733;28;20020;-60
2023/07/23 21:38:29;;;;;;;6.50;4.82;;;;;;;;;;5074550;28;20082;-60
2023/07/23 21:40:56;;;;;;;5.35;3.85;;;;;;;;;;5073748;28;20055;-60
2023/07/23 21:43:22;;;;;;;7.45;4.55;;;;;;;;;;5074186;28;20450;-60
2023/07/23 21:45:48;;;;;;;6.32;5.07;;;;;;;;;;5074388;28;20082;-60
2023/07/23 21:48:14;;;;;;;6.75;4.70;;;;;;;;;;5073749;28;20532;-60
2023/07/23 21:50:40;;;;;;;6.90;4.70;;;;;;;;;;5074154;28;20060;-60
2023/07/23 21:53:06;;;;;;;6.57;4.72;;;;;;;;;;5074288;28;20021;-60
2023/07/23 21:55:32;;;;;;;7.20;4.13;;;;;;;;;;5074124;28;20075;-60
2023/07/23 21:57:58;;;;;;;5.82;4.28;;;;;;;;;;5073402;28;20064;-60
2023/07/23 22:00:24;;;;;;;6.28;4.28;;;;;;;;;;5073428;28;20032;-60
2023/07/23 22:02:50;;;;;;;5.40;4.25;;;;;;;;;;5073920;28;20025;-60
2023/07/23 22:05:16;;;;;;;4.80;3.65;;;;;;;;;;5073827;28;20035;-60
2023/07/23 22:07:42;;;;;;;4.78;4.05;;;;;;;;;;5073606;28;20029;-60
2023/07/23 22:10:08;;;;;;;6.40;4.47;;;;;;;;;;5074447;28;20520;-60
2023/07/23 22:12:34;;;;;;;7.10;4.70;;;;;;;;;;5074392;28;20094;-60
2023/07/23 22:15:00;;;;;;;4.80;3.53;;;;;;;;;;5073812;28;20056;-60
2023/07/23 22:17:26;;;;;;;5.10;4.18;;;;;;;;;;5073423;28;20552;-60
2023/07/23 22:19:52;;;;;;;7.90;5.40;;;;;;;;;;5056367;28;20024;-60
2023/07/23 22:22:18;;;;;;;6.00;4.35;;;;;;;;;;5073469;28;20029;-60
2023/07/23 22:24:44;;;;;;;7.18;4.30;;;;;;;;;;5074303;28;20052;-60
2023/07/23 22:27:10;;;;;;;7.72;4.40;;;;;;;;;;5073466;28;20044;-60
2023/07/23 22:29:36;;;;;;;6.70;5.20;;;;;;;;;;5055596;28;20024;-60
2023/07/23 22:32:03;;;;;;;6.95;4.95;;;;;;;;;;5073654;28;20126;-60
2023/07/23 22:34:29;;;;;;;5.75;4.40;;;;;;;;;;5073060;28;20496;-60
2023/07/23 22:36:54;;;;;;;6.78;4.22;;;;;;;;;;5072971;28;20060;-60
2023/07/23 22:39:20;;;;;;;6.10;4.53;;;;;;;;;;5073858;28;20123;-60
2023/07/23 22:41:46;;;;;;;6.93;4.32;;;;;;;;;;5073827;28;20434;-60
2023/07/23 22:44:12;;;;;;;7.40;4.65;;;;;;;;;;5073210;28;20020;-60
2023/07/23 22:46:38;;;;;;;5.13;3.80;;;;;;;;;;5073804;28;20017;-60
2023/07/23 22:49:07;;;;;;;5.82;4.10;;;;;;;;;;5073569;28;20347;-61
2023/07/23 22:51:33;;;;;;;7.00;4.45;;;;;;;;;;5073728;28;20025;-60
2023/07/23 22:53:58;;;;;;;5.70;4.57;;;;;;;;;;5073186;28;20060;-60
2023/07/23 22:56:24;;;;;;;8.10;5.20;;;;;;;;;;5073577;28;20114;-60
2023/07/23 22:58:51;;;;;;;6.13;4.70;;;;;;;;;;5073655;28;20551;-60
2023/07/23 23:01:18;;;;;;;7.00;4.28;;;;;;;;;;5073607;28;20016;-60
2023/07/23 23:03:44;;;;;;;6.03;4.60;;;;;;;;;;5073134;28;20017;-60
2023/07/23 23:06:10;;;;;;;7.55;4.63;;;;;;;;;;5072823;28;20028;-61
2023/07/23 23:08:36;;;;;;;6.65;5.13;;;;;;;;;;5073101;28;20050;-60
2023/07/23 23:11:01;;;;;;;6.35;4.43;;;;;;;;;;5072977;28;20070;-60
2023/07/23 23:13:27;;;;;;;6.75;4.35;;;;;;;;;;5074774;28;20099;-60
2023/07/23 23:15:53;;;;;;;7.18;4.35;;;;;;;;;;5076649;28;20469;-60
2023/07/23 23:18:19;;;;;;;7.15;4.90;;;;;;;;;;5076695;28;20093;-60
2023/07/23 23:20:45;;;;;;;5.70;4.22;;;;;;;;;;5076715;28;20108;-60
2023/07/23 23:23:11;;;;;;;7.97;4.53;;;;;;;;;;5077180;28;20096;-60
2023/07/23 23:25:37;;;;;;;5.45;4.53;;;;;;;;;;5076462;28;20021;-61
2023/07/23 23:28:03;;;;;;;11.82;5.15;;;;;;;;;;5076475;28;20343;-61
2023/07/23 23:30:29;;;;;;;8.43;5.47;;;;;;;;;;5077311;28;20024;-61
2023/07/23 23:32:55;;;;;;;6.40;4.60;;;;;;;;;;5076728;28;20024;-61
2023/07/23 23:35:21;;;;;;;5.25;4.13;;;;;;;;;;5076427;28;20119;-60
2023/07/23 23:37:47;;;;;;;6.22;4.30;;;;;;;;;;5076864;28;20132;-61
2023/07/23 23:40:13;;;;;;;6.50;3.90;;;;;;;;;;5077221;28;20020;-61
2023/07/23 23:42:40;;;;;;;5.60;4.25;;;;;;;;;;5076883;28;20054;-61
2023/07/23 23:45:06;;;;;;;6.85;5.25;;;;;;;;;;5076215;28;20127;-61
2023/07/23 23:47:32;;;;;;;6.32;4.65;;;;;;;;;;5076172;28;20056;-61
2023/07/23 23:49:58;;;;;;;5.63;4.53;;;;;;;;;;5076399;28;20063;-61
2023/07/23 23:52:24;;;;;;;6.90;4.93;;;;;;;;;;5076628;28;20025;-61
2023/07/23 23:54:50;;;;;;;10.43;4.65;;;;;;;;;;5076069;28;20343;-60
2023/07/23 23:57:16;;;;;;;6.43;4.35;;;;;;;;;;5075883;28;20036;-60
2023/07/23 23:59:42;;;;;;;5.90;4.20;;;;;;;;;;5075998;28;20032;-60
